Time;durP1;ratioP1;P1;durP2;ratioP2;P2;SDS_P1;SDS_P2;PMS_P1;PMS_P2;Temp;Humidity;BMP_temperature;BMP_pressure;BME280_temperature;BME280_humidity;BME280_pressure;Samples;Min_cycle;Max_cycle;Signal;HPM_P1;HPM_P2
2023/04/30 00:01:57;;;;;;;20.92;10.90;;;;;;;6.49;79.37;148934.84;5097213;28;20048;-63
2023/04/30 00:04:23;;;;;;;26.02;11.50;;;;;;;6.50;80.06;148938.66;5090679;28;20383;-62
2023/04/30 00:06:48;;;;;;;20.98;10.60;;;;;;;6.51;79.29;148939.94;5082586;28;20241;-62
2023/04/30 00:09:14;;;;;;;30.05;13.05;;;;;;;6.46;79.34;148927.16;5082457;28;20056;-62
2023/04/30 00:11:39;;;;;;;19.25;11.10;;;;;;;6.43;79.22;148920.78;5094029;28;20137;-63
2023/04/30 00:14:05;;;;;;;16.92;10.77;;;;;;;6.43;79.78;148920.78;5096356;28;20096;-64
2023/04/30 00:16:31;;;;;;;16.80;10.95;;;;;;;6.41;79.46;148914.38;5084178;28;20035;-63
2023/04/30 00:18:56;;;;;;;17.13;11.38;;;;;;;6.33;79.34;148896.47;5102695;28;20027;-62
2023/04/30 00:21:22;;;;;;;21.33;10.90;;;;;;;6.34;79.33;148897.75;5084358;28;20078;-63
2023/04/30 00:23:47;;;;;;;19.55;10.98;;;;;;;6.35;79.13;148900.31;5102770;28;20094;-62
2023/04/30 00:26:14;;;;;;;20.27;10.50;;;;;;;6.38;79.24;148909.28;5094819;28;20073;-62
2023/04/30 00:28:40;;;;;;;17.50;11.30;;;;;;;6.40;79.40;148913.13;5085287;28;20032;-62
2023/04/30 00:31:08;;;;;;;16.45;10.75;;;;;;;6.31;79.61;148891.34;5102563;28;20041;-62
2023/04/30 00:33:34;;;;;;;19.90;11.15;;;;;;;6.27;80.08;148879.84;5102393;28;20042;-62
2023/04/30 00:36:00;;;;;;;18.88;10.27;;;;;;;6.21;79.61;148865.78;5088413;28;20221;-62
2023/04/30 00:38:25;;;;;;;20.20;10.20;;;;;;;6.20;79.70;148863.28;5073261;28;20052;-62
2023/04/30 00:40:52;;;;;;;22.20;12.25;;;;;;;6.20;79.40;148863.28;5097889;28;20036;-63
2023/04/30 00:43:17;;;;;;;22.83;10.80;;;;;;;6.19;79.85;148860.69;5102227;28;20027;-62
2023/04/30 00:45:43;;;;;;;21.08;10.63;;;;;;;6.15;80.02;148851.72;5093431;28;20058;-62
2023/04/30 00:48:09;;;;;;;20.63;11.32;;;;;;;6.11;80.12;148840.25;5102414;28;20024;-62
2023/04/30 00:50:35;;;;;;;19.88;10.63;;;;;;;6.10;80.06;148837.66;5091597;28;20131;-62
2023/04/30 00:53:01;;;;;;;15.07;10.05;;;;;;;6.09;80.64;148836.41;5088201;28;20049;-62
2023/04/30 00:55:27;;;;;;;21.80;11.52;;;;;;;6.03;80.59;148822.34;5101252;28;20090;-62
2023/04/30 00:57:53;;;;;;;18.75;10.43;;;;;;;6.04;80.32;148824.94;5082057;28;20035;-62
2023/04/30 01:00:19;;;;;;;20.50;11.27;;;;;;;6.02;80.65;148819.78;5098222;28;20036;-61
2023/04/30 01:02:44;;;;;;;18.70;11.73;;;;;;;6.03;80.28;148822.34;5091189;28;20035;-61
2023/04/30 01:05:10;;;;;;;17.40;10.75;;;;;;;5.94;80.90;148799.28;5092596;28;20272;-64
2023/04/30 01:07:40;;;;;;;18.48;11.35;;;;;;;5.88;80.47;148785.22;5103906;28;20145;-63
2023/04/30 01:10:06;;;;;;;20.52;11.57;;;;;;;5.95;80.59;148801.84;5085636;28;20264;-63
2023/04/30 01:12:42;;;;;;;17.80;10.75;;;;;;;5.88;80.77;148783.97;5067359;28;20063;-64
2023/04/30 01:15:20;;;;;;;21.83;11.75;;;;;;;5.99;80.80;148810.88;5099468;28;20024;-62
2023/04/30 01:17:54;;;;;;;22.58;11.00;;;;;;;6.02;80.61;148819.78;5075423;28;20051;-63
2023/04/30 01:20:21;;;;;;;21.92;11.65;;;;;;;6.01;80.42;148815.97;5093169;28;20194;-62
2023/04/30 01:23:17;;;;;;;20.55;11.43;;;;;;;6.02;80.23;148818.53;5105682;28;20047;-65
2023/04/30 01:26:17;;;;;;;17.60;11.57;;;;;;;5.99;80.08;148812.13;5084610;28;20106;-63
2023/04/30 01:28:44;;;;;;;16.08;10.38;;;;;;;5.86;80.47;148780.13;5087915;28;20047;-63
2023/04/30 01:31:13;;;;;;;20.38;11.38;;;;;;;5.94;80.41;148798.03;5105431;28;20024;-63
2023/04/30 01:33:39;;;;;;;17.92;11.85;;;;;;;5.90;80.61;148789.09;5105472;28;20243;-63
2023/04/30 01:36:25;;;;;;;17.67;10.65;;;;;;;5.93;80.50;148795.44;5091344;28;20035;-62
2023/04/30 01:39:33;;;;;;;17.42;10.98;;;;;;;5.79;80.55;148761.00;5097550;28;20057;-61
2023/04/30 01:42:15;;;;;;;20.13;11.30;;;;;;;5.83;80.52;148772.47;5105535;28;20038;-62
2023/04/30 01:45:00;;;;;;;18.98;12.05;;;;;;;5.86;80.86;148778.88;5105101;28;20023;-63
2023/04/30 01:47:39;;;;;;;16.05;11.05;;;;;;;5.84;80.41;148775.03;5105018;28;20095;-62
2023/04/30 01:50:47;;;;;;;16.75;10.85;;;;;;;5.82;80.50;148768.66;5099553;28;20159;-62
2023/04/30 01:53:20;;;;;;;21.27;11.70;;;;;;;5.63;80.52;148722.66;5089554;28;20072;-61
2023/04/30 01:55:56;;;;;;;14.65;10.75;;;;;;;5.74;79.96;148749.47;5104833;28;20020;-62
2023/04/30 01:58:24;;;;;;;16.40;11.48;;;;;;;5.65;80.66;148726.50;5104643;28;20040;-63
2023/04/30 02:00:49;;;;;;;16.98;9.93;;;;;;;5.76;80.41;148753.28;5084753;28;20021;-62
2023/04/30 02:03:15;;;;;;;20.23;12.20;;;;;;;5.78;80.00;148759.69;5084516;28;20032;-62
2023/04/30 02:05:40;;;;;;;14.95;10.80;;;;;;;5.74;80.78;148748.19;5094891;28;20328;-62
2023/04/30 02:08:06;;;;;;;18.67;11.38;;;;;;;5.76;80.32;148753.28;5104395;28;20039;-63
2023/04/30 02:10:32;;;;;;;17.15;11.15;;;;;;;5.77;80.60;148755.84;5103519;28;20161;-62
2023/04/30 02:12:57;;;;;;;14.52;10.88;;;;;;;5.76;80.53;148753.28;5084358;28;20341;-62
2023/04/30 02:15:23;;;;;;;18.77;11.70;;;;;;;5.73;80.95;148746.94;5086820;28;20335;-62
2023/04/30 02:17:49;;;;;;;21.05;11.65;;;;;;;5.75;80.54;148752.03;5084384;28;20025;-62
2023/04/30 02:20:14;;;;;;;21.08;11.88;;;;;;;5.73;80.91;148745.63;5091004;28;20020;-62
2023/04/30 02:22:40;;;;;;;20.02;12.25;;;;;;;5.77;80.97;148755.84;5102531;28;20032;-62
2023/04/30 02:25:06;;;;;;;17.77;11.52;;;;;;;5.76;81.14;148754.59;5084219;28;20021;-62
2023/04/30 02:27:32;;;;;;;16.60;12.23;;;;;;;5.78;80.65;148758.44;5083472;28;20032;-64
2023/04/30 02:29:58;;;;;;;16.55;11.73;;;;;;;5.83;80.69;148772.47;5083343;28;20254;-62
2023/04/30 02:32:24;;;;;;;18.30;12.18;;;;;;;5.84;80.67;148775.03;5094823;28;20030;-62
2023/04/30 02:34:50;;;;;;;19.27;11.80;;;;;;;5.86;81.09;148778.88;5100211;28;20047;-63
2023/04/30 02:37:15;;;;;;;19.63;12.35;;;;;;;5.92;81.01;148794.19;5082817;28;20050;-61
2023/04/30 02:39:41;;;;;;;16.77;11.93;;;;;;;5.94;81.22;148799.28;5101704;28;20028;-61
2023/04/30 02:42:07;;;;;;;21.35;12.55;;;;;;;5.95;81.03;148800.59;5100381;28;20027;-62
2023/04/30 02:44:33;;;;;;;21.08;12.40;;;;;;;6.05;81.10;148827.44;5096038;28;20046;-63
2023/04/30 02:46:59;;;;;;;24.05;13.40;;;;;;;6.23;80.52;148870.94;5104047;28;20068;-62
2023/04/30 02:49:25;;;;;;;25.55;13.30;;;;;;;6.44;79.68;148922.03;5104084;28;20043;-62
2023/04/30 02:51:51;;;;;;;31.23;14.20;;;;;;;6.62;79.47;148968.06;5083989;28;20040;-62
2023/04/30 02:54:17;;;;;;;24.10;13.13;;;;;;;6.65;79.81;148975.72;5080955;28;20087;-62
2023/04/30 02:56:43;;;;;;;24.33;13.70;;;;;;;6.90;78.97;149037.13;5093371;28;20095;-61
2023/04/30 02:59:09;;;;;;;15.07;11.40;;;;;;;7.13;78.30;149093.41;5089177;28;20042;-62
2023/04/30 03:01:35;;;;;;;20.33;13.77;;;;;;;7.59;76.52;149209.75;5102811;28;20047;-62
2023/04/30 03:04:02;;;;;;;21.20;13.27;;;;;;;7.70;75.84;149236.66;5083317;28;20321;-62
2023/04/30 03:06:28;;;;;;;25.92;14.43;;;;;;;8.18;74.75;149355.69;5099791;28;20135;-63
2023/04/30 03:08:54;;;;;;;25.35;14.18;;;;;;;8.23;73.80;149368.47;5091562;28;20047;-63
2023/04/30 03:11:20;;;;;;;26.02;15.07;;;;;;;8.25;73.98;149373.59;5072072;28;20091;-62
2023/04/30 03:13:50;;;;;;;27.35;15.05;;;;;;;8.30;74.73;149385.13;5101096;28;20055;-62
2023/04/30 03:16:17;;;;;;;23.17;14.18;;;;;;;8.23;74.21;149367.19;5083051;28;20025;-63
2023/04/30 03:18:42;;;;;;;29.90;17.25;;;;;;;8.20;74.88;149360.78;5101267;28;20020;-62
2023/04/30 03:21:08;;;;;;;33.28;17.02;;;;;;;8.13;75.71;149344.13;5103286;28;20231;-62
2023/04/30 03:23:34;;;;;;;28.55;15.43;;;;;;;8.04;76.05;149321.13;5103029;28;20035;-62
2023/04/30 03:26:00;;;;;;;22.98;16.13;;;;;;;8.04;75.64;149321.13;5098346;28;20024;-62
2023/04/30 03:28:25;;;;;;;27.92;16.90;;;;;;;8.07;76.45;149328.78;5082849;28;20066;-62
2023/04/30 03:30:51;;;;;;;32.58;17.52;;;;;;;8.12;76.18;149340.28;5102616;28;20084;-62
2023/04/30 03:33:17;;;;;;;28.90;17.80;;;;;;;8.21;75.92;149362.06;5102965;28;20024;-62
2023/04/30 03:35:43;;;;;;;42.97;20.08;;;;;;;8.13;77.48;149342.88;5093054;28;20033;-62
2023/04/30 03:38:08;;;;;;;34.55;20.95;;;;;;;8.34;74.68;149394.06;5088103;28;20204;-62
2023/04/30 03:40:34;;;;;;;25.60;18.58;;;;;;;8.55;74.85;149446.59;5102674;28;20335;-63
2023/04/30 03:42:59;;;;;;;26.15;19.00;;;;;;;8.30;72.28;149385.13;5101368;28;20032;-63
2023/04/30 03:45:25;;;;;;;26.88;18.60;;;;;;;8.58;73.37;149454.28;5095730;28;20057;-63
2023/04/30 03:47:51;;;;;;;26.10;18.92;;;;;;;8.74;71.92;149494.00;5102944;28;20032;-63
2023/04/30 03:50:17;;;;;;;27.08;19.40;;;;;;;9.07;71.28;149577.25;5096460;28;20099;-63
2023/04/30 03:52:44;;;;;;;27.40;21.25;;;;;;;9.32;69.75;149640.03;5084109;28;20059;-63
2023/04/30 03:55:10;;;;;;;26.77;19.67;;;;;;;9.41;69.63;149660.53;5103061;28;20028;-63
2023/04/30 03:57:37;;;;;;;28.23;21.42;;;;;;;9.25;69.44;149620.78;5085385;28;20037;-64
2023/04/30 04:00:08;;;;;;;28.17;22.40;;;;;;;8.72;70.09;149490.19;5095199;28;20343;-63
2023/04/30 04:02:34;;;;;;;26.98;22.35;;;;;;;8.38;70.21;149405.63;5094053;28;20302;-63
2023/04/30 04:04:59;;;;;;;25.70;20.77;;;;;;;8.68;70.63;149478.63;5085898;28;20036;-62
2023/04/30 04:07:25;;;;;;;32.40;23.50;;;;;;;8.52;69.81;149438.94;5102715;28;20043;-63
2023/04/30 04:09:50;;;;;;;28.95;23.73;;;;;;;8.27;69.93;149378.72;5083783;28;20044;-63
2023/04/30 04:12:16;;;;;;;28.35;23.60;;;;;;;8.68;69.65;149479.94;5096700;28;20358;-61
2023/04/30 04:14:41;;;;;;;29.23;22.88;;;;;;;8.37;70.55;149401.78;5093002;28;20118;-62
2023/04/30 04:17:07;;;;;;;26.52;21.63;;;;;;;8.63;69.64;149468.38;5087086;28;20020;-62
2023/04/30 04:19:33;;;;;;;29.73;22.38;;;;;;;8.55;70.37;149446.59;5102350;28;20039;-63
2023/04/30 04:21:58;;;;;;;26.50;20.98;;;;;;;8.70;69.51;149483.75;5102606;28;20028;-63
2023/04/30 04:24:25;;;;;;;25.00;20.65;;;;;;;8.59;69.38;149456.84;5087107;28;20376;-62
2023/04/30 04:26:51;;;;;;;26.13;21.65;;;;;;;8.42;69.40;149415.84;5092975;28;20027;-62
2023/04/30 04:29:16;;;;;;;25.73;20.25;;;;;;;8.67;70.67;149476.09;5096374;28;20024;-63
2023/04/30 04:31:42;;;;;;;28.67;21.23;;;;;;;8.55;69.22;149446.59;5088267;28;20090;-62
2023/04/30 04:34:08;;;;;;;24.38;21.35;;;;;;;8.84;69.05;149519.63;5102638;28;20031;-64
2023/04/30 04:36:33;;;;;;;27.27;21.48;;;;;;;8.94;69.22;149543.94;5086013;28;20036;-62
2023/04/30 04:39:02;;;;;;;28.88;20.85;;;;;;;8.86;69.00;149523.44;5097861;28;20358;-62
2023/04/30 04:41:32;;;;;;;26.42;20.20;;;;;;;9.14;68.09;149595.16;5106089;28;20087;-62
2023/04/30 04:43:58;;;;;;;26.45;20.50;;;;;;;8.96;67.87;149549.06;5102608;28;20096;-61
2023/04/30 04:46:25;;;;;;;27.63;20.25;;;;;;;9.10;67.66;149583.66;5102375;28;20055;-61
2023/04/30 04:48:52;;;;;;;26.10;21.95;;;;;;;9.07;68.06;149575.97;5088134;28;20032;-63
2023/04/30 04:51:17;;;;;;;27.77;19.75;;;;;;;9.30;67.92;149633.63;5092035;28;20234;-62
2023/04/30 04:53:43;;;;;;;26.13;20.02;;;;;;;9.45;66.89;149672.06;5095481;28;20096;-62
2023/04/30 04:56:08;;;;;;;22.33;18.85;;;;;;;9.69;65.71;149731.03;5101629;28;20205;-63
2023/04/30 04:58:34;;;;;;;20.85;17.65;;;;;;;9.65;65.78;149720.75;5085541;28;20309;-65
2023/04/30 05:01:00;;;;;;;22.40;17.73;;;;;;;9.62;66.20;149714.34;5105681;28;20085;-64
2023/04/30 05:03:27;;;;;;;19.67;16.70;;;;;;;9.74;65.44;149742.53;5090620;28;20029;-64
2023/04/30 05:05:53;;;;;;;22.88;16.02;;;;;;;10.01;65.11;149811.72;5078430;28;20298;-63
2023/04/30 05:08:18;;;;;;;21.77;15.63;;;;;;;10.03;64.47;149815.56;5100199;28;20036;-63
2023/04/30 05:10:44;;;;;;;21.00;13.40;;;;;;;10.56;63.64;149946.41;5068700;28;20206;-64
2023/04/30 05:13:10;;;;;;;17.40;13.00;;;;;;;10.57;61.67;149949.00;5105660;28;20054;-63
2023/04/30 05:15:36;;;;;;;15.00;11.48;;;;;;;10.51;61.38;149936.16;5089022;28;20193;-63
2023/04/30 05:18:01;;;;;;;10.43;9.02;;;;;;;10.34;60.78;149893.81;5096839;28;20028;-64
2023/04/30 05:20:27;;;;;;;16.17;10.60;;;;;;;9.96;62.28;149798.94;5105548;28;20220;-64
2023/04/30 05:22:53;;;;;;;14.65;11.10;;;;;;;10.23;61.85;149865.56;5105318;28;20040;-64
2023/04/30 05:25:18;;;;;;;16.15;10.82;;;;;;;10.39;61.28;149905.41;5105357;28;20091;-64
2023/04/30 05:27:44;;;;;;;13.30;10.23;;;;;;;10.17;62.31;149850.19;5088044;28;20039;-63
2023/04/30 05:30:10;;;;;;;16.35;11.50;;;;;;;11.11;60.75;150083.69;5097895;28;20027;-64
2023/04/30 05:32:35;;;;;;;13.02;10.63;;;;;;;11.29;59.83;150129.88;5105032;28;20031;-64
2023/04/30 05:35:01;;;;;;;14.60;11.52;;;;;;;10.97;59.19;150050.28;5102027;28;20024;-63
2023/04/30 05:37:27;;;;;;;23.55;11.63;;;;;;;10.77;59.69;150000.28;5084691;28;20036;-64
2023/04/30 05:39:52;;;;;;;13.73;10.88;;;;;;;10.83;59.14;150015.69;5067093;28;20060;-64
2023/04/30 05:42:19;;;;;;;16.17;11.23;;;;;;;10.76;60.12;149996.44;5098826;28;20047;-63
2023/04/30 05:44:45;;;;;;;15.95;12.20;;;;;;;11.02;59.74;150063.13;5099197;28;20043;-63
2023/04/30 05:47:10;;;;;;;15.68;12.25;;;;;;;11.03;59.32;150065.72;5105190;28;20091;-63
2023/04/30 05:49:36;;;;;;;16.00;12.23;;;;;;;11.20;60.19;150108.06;5104258;28;20250;-62
2023/04/30 05:52:02;;;;;;;14.68;12.45;;;;;;;11.32;60.10;150136.28;5084999;28;20050;-63
2023/04/30 05:54:29;;;;;;;16.65;12.63;;;;;;;11.36;60.53;150147.81;5099426;28;20027;-63
2023/04/30 05:56:54;;;;;;;15.50;12.43;;;;;;;11.32;59.16;150137.56;5094565;28;20040;-63
2023/04/30 05:59:20;;;;;;;16.67;12.50;;;;;;;11.07;58.83;150074.66;5090034;28;20047;-65
2023/04/30 06:01:45;;;;;;;16.20;11.82;;;;;;;11.04;59.87;150066.97;5104068;28;20065;-63
2023/04/30 06:04:11;;;;;;;14.57;12.00;;;;;;;11.23;59.12;150115.75;5084655;28;20325;-63
2023/04/30 06:06:37;;;;;;;18.15;12.43;;;;;;;11.32;59.75;150136.28;5100582;28;20325;-63
2023/04/30 06:09:02;;;;;;;13.73;11.48;;;;;;;11.05;59.43;150069.56;5093566;28;20036;-62
2023/04/30 06:11:29;;;;;;;13.77;11.40;;;;;;;11.28;58.26;150126.03;5090992;28;20243;-63
2023/04/30 06:13:55;;;;;;;11.80;10.60;;;;;;;11.64;58.48;150215.84;5103187;28;20032;-63
2023/04/30 06:16:20;;;;;;;14.95;10.50;;;;;;;11.69;57.76;150228.69;5084563;28;20069;-62
2023/04/30 06:18:46;;;;;;;9.88;8.82;;;;;;;11.47;57.26;150173.47;5084233;28;20095;-64
2023/04/30 06:21:11;;;;;;;15.13;7.78;;;;;;;11.04;56.78;150068.28;5097032;28;20055;-63
2023/04/30 06:23:37;;;;;;;13.68;8.93;;;;;;;10.95;57.36;150043.91;5096682;28;20029;-62
2023/04/30 06:26:03;;;;;;;10.45;8.68;;;;;;;10.80;57.60;150006.69;5084002;28;20324;-64
2023/04/30 06:28:28;;;;;;;13.73;9.23;;;;;;;10.97;57.93;150049.03;5084160;28;20028;-63
2023/04/30 06:30:54;;;;;;;10.13;8.20;;;;;;;11.22;56.82;150113.16;5083994;28;20039;-63
2023/04/30 06:33:20;;;;;;;8.73;7.40;;;;;;;11.32;55.05;150137.56;5104162;28;20077;-63
2023/04/30 06:35:46;;;;;;;9.15;6.70;;;;;;;11.25;54.65;150118.31;5095307;28;20037;-64
2023/04/30 06:38:13;;;;;;;9.02;7.28;;;;;;;11.67;54.94;150224.84;5087790;28;20063;-63
2023/04/30 06:40:39;;;;;;;10.23;7.05;;;;;;;11.59;53.71;150204.31;5085996;28;20091;-63
2023/04/30 06:43:04;;;;;;;12.15;7.18;;;;;;;11.93;55.32;150289.03;5103458;28;20054;-64
2023/04/30 06:45:30;;;;;;;13.73;7.70;;;;;;;12.14;54.19;150340.41;5098209;28;20212;-63
2023/04/30 06:47:56;;;;;;;8.00;7.18;;;;;;;11.73;53.64;150240.22;5103812;28;20043;-64
2023/04/30 06:50:22;;;;;;;9.55;6.38;;;;;;;11.49;52.95;150178.63;5065562;28;20048;-64
2023/04/30 06:52:47;;;;;;;6.20;4.88;;;;;;;11.58;50.92;150203.00;5065756;28;20127;-63
2023/04/30 06:55:13;;;;;;;7.40;5.32;;;;;;;11.58;51.54;150201.72;5103774;28;20032;-63
2023/04/30 06:57:39;;;;;;;6.03;5.40;;;;;;;11.40;51.36;150156.78;5087556;28;20032;-64
2023/04/30 07:00:05;;;;;;;5.05;4.55;;;;;;;11.55;49.90;150195.28;5094606;28;20061;-64
2023/04/30 07:02:31;;;;;;;10.82;6.80;;;;;;;11.33;51.07;150138.81;5096852;28;20028;-62
2023/04/30 07:04:57;;;;;;;5.03;4.50;;;;;;;11.55;50.93;150195.28;5082996;28;20063;-62
2023/04/30 07:07:23;;;;;;;4.90;4.00;;;;;;;11.70;49.12;150231.22;5082557;28;20036;-61
2023/04/30 07:09:49;;;;;;;5.97;3.60;;;;;;;11.31;47.74;150133.72;5100524;28;20024;-65
2023/04/30 07:12:15;;;;;;;4.13;3.78;;;;;;;11.40;47.79;150156.78;5090762;28;20347;-62
2023/04/30 07:14:41;;;;;;;7.15;4.25;;;;;;;11.62;48.51;150212.00;5082986;28;20024;-64
2023/04/30 07:17:07;;;;;;;4.35;3.20;;;;;;;11.60;48.03;150205.56;5083026;28;20212;-63
2023/04/30 07:19:32;;;;;;;4.32;2.50;;;;;;;11.28;46.65;150127.28;5082769;28;20032;-64
2023/04/30 07:21:58;;;;;;;4.35;2.97;;;;;;;11.44;47.18;150167.06;5083587;28;20047;-62
2023/04/30 07:24:23;;;;;;;7.22;2.83;;;;;;;11.69;46.18;150228.69;5103105;28;20252;-64
2023/04/30 07:26:49;;;;;;;3.85;2.58;;;;;;;11.77;47.04;150247.94;5094282;28;20174;-63
2023/04/30 07:29:15;;;;;;;4.53;2.40;;;;;;;11.52;46.22;150187.59;5082757;28;20201;-63
2023/04/30 07:31:40;;;;;;;4.13;2.50;;;;;;;11.47;47.38;150174.78;5088651;28;20024;-62
2023/04/30 07:34:07;;;;;;;3.85;2.10;;;;;;;11.35;46.43;150145.25;5083528;28;20100;-64
2023/04/30 07:36:33;;;;;;;4.15;2.42;;;;;;;11.52;46.07;150187.59;5097581;28;20048;-63
2023/04/30 07:38:58;;;;;;;2.40;2.00;;;;;;;11.72;45.00;150237.66;5093157;28;20407;-63
2023/04/30 07:41:25;;;;;;;2.60;1.80;;;;;;;11.35;43.87;150145.25;5087586;28;20217;-63
2023/04/30 07:43:50;;;;;;;2.58;1.90;;;;;;;11.26;45.15;150120.84;5102581;28;20028;-64
2023/04/30 07:46:16;;;;;;;6.53;1.88;;;;;;;11.06;44.96;150072.13;5080740;28;20064;-62
2023/04/30 07:48:42;;;;;;;3.53;2.00;;;;;;;11.20;45.46;150108.06;5102722;28;20036;-61
2023/04/30 07:51:07;;;;;;;2.92;1.80;;;;;;;11.34;46.01;150142.72;5091787;28;20020;-63
2023/04/30 07:53:33;;;;;;;3.55;2.10;;;;;;;11.47;46.82;150174.78;5088793;28;20094;-63
2023/04/30 07:55:58;;;;;;;3.58;1.90;;;;;;;11.63;46.17;150213.25;5101348;28;20084;-63
2023/04/30 07:58:24;;;;;;;5.55;2.20;;;;;;;11.72;46.78;150237.66;5082358;28;20035;-63
2023/04/30 08:00:50;;;;;;;2.90;2.17;;;;;;;11.60;47.04;150206.88;5099373;28;20374;-64
2023/04/30 08:03:15;;;;;;;4.18;2.28;;;;;;;11.50;46.53;150181.16;5101550;28;20027;-63
2023/04/30 08:05:41;;;;;;;3.13;2.30;;;;;;;11.19;48.03;150104.22;5094650;28;20312;-64
2023/04/30 08:08:07;;;;;;;7.32;2.00;;;;;;;11.62;47.57;150212.00;5082196;28;20099;-62
2023/04/30 08:10:33;;;;;;;4.75;2.42;;;;;;;11.79;47.87;150254.34;5064503;28;20044;-62
2023/04/30 08:12:58;;;;;;;5.32;2.10;;;;;;;11.92;47.61;150286.44;5099713;28;20023;-62
2023/04/30 08:15:24;;;;;;;2.40;2.13;;;;;;;11.85;47.23;150269.75;5071181;28;20016;-63
2023/04/30 08:17:51;;;;;;;3.75;1.88;;;;;;;11.46;46.83;150170.91;5056117;28;20216;-64
2023/04/30 08:20:17;;;;;;;3.55;1.75;;;;;;;11.22;47.41;150111.91;5102609;28;20069;-64
2023/04/30 08:22:43;;;;;;;3.45;2.03;;;;;;;11.16;47.48;150097.78;5102438;28;20024;-62
2023/04/30 08:25:12;;;;;;;1.88;1.73;;;;;;;11.13;47.86;150088.78;5102490;28;20301;-63
2023/04/30 08:27:39;;;;;;;2.47;1.95;;;;;;;10.97;48.37;150050.28;5087363;28;20040;-64
2023/04/30 08:30:08;;;;;;;2.85;2.03;;;;;;;11.16;48.48;150097.78;5082230;28;20036;-64
2023/04/30 08:32:37;;;;;;;2.65;2.17;;;;;;;11.34;48.58;150142.72;5095180;28;20028;-63
2023/04/30 08:35:06;;;;;;;2.60;2.08;;;;;;;11.40;49.54;150156.78;5100667;28;20268;-64
2023/04/30 08:37:32;;;;;;;3.25;1.98;;;;;;;11.56;48.11;150196.59;5082008;28;20248;-64
2023/04/30 08:39:58;;;;;;;5.63;2.17;;;;;;;11.32;49.26;150137.56;5099828;28;20138;-63
2023/04/30 08:42:28;;;;;;;4.00;1.77;;;;;;;11.29;49.32;150129.88;5102055;28;20044;-64
2023/04/30 08:44:54;;;;;;;2.38;1.77;;;;;;;11.24;48.87;150117.00;5102130;28;20020;-65
2023/04/30 08:47:21;;;;;;;3.05;1.92;;;;;;;11.27;49.11;150124.69;5102008;28;20035;-65
2023/04/30 08:49:47;;;;;;;3.65;1.83;;;;;;;11.22;49.38;150113.16;5102128;28;20032;-64
2023/04/30 08:52:13;;;;;;;2.85;2.25;;;;;;;11.52;47.81;150187.59;5082290;28;20051;-62
2023/04/30 08:54:39;;;;;;;5.80;1.60;;;;;;;11.37;47.22;150149.09;5096735;28;20087;-63
2023/04/30 08:57:05;;;;;;;2.15;1.50;;;;;;;11.31;46.35;150133.72;5091925;28;20031;-63
2023/04/30 08:59:30;;;;;;;1.73;1.60;;;;;;;11.17;46.55;150100.38;5086912;28;20105;-62
2023/04/30 09:01:56;;;;;;;2.83;1.73;;;;;;;11.20;46.98;150108.06;5101679;28;20043;-62
2023/04/30 09:04:22;;;;;;;3.25;1.85;;;;;;;11.49;47.04;150178.63;5063654;28;20056;-63
2023/04/30 09:06:47;;;;;;;5.07;2.00;;;;;;;11.65;46.93;150219.69;5097740;28;20067;-62
2023/04/30 09:09:15;;;;;;;3.95;2.10;;;;;;;11.56;46.60;150197.88;5072616;28;20036;-63
2023/04/30 09:11:41;;;;;;;1.60;1.40;;;;;;;11.32;46.80;150136.28;5088709;28;20040;-62
2023/04/30 09:14:07;;;;;;;5.47;1.77;;;;;;;11.31;46.41;150133.72;5101919;28;20032;-62
2023/04/30 09:16:49;;;;;;;1.85;1.40;;;;;;;11.38;45.87;150151.66;5101450;28;20036;-61
2023/04/30 09:19:26;;;;;;;4.10;1.90;;;;;;;11.47;46.43;150174.78;5081460;28;20021;-62
2023/04/30 09:21:51;;;;;;;3.83;1.52;;;;;;;11.40;46.66;150156.78;5098122;28;20024;-62
2023/04/30 09:24:17;;;;;;;3.58;1.60;;;;;;;11.30;46.42;150131.13;5103061;28;20028;-62
2023/04/30 09:26:45;;;;;;;2.17;1.70;;;;;;;11.49;46.12;150178.63;5098348;28;20032;-64
2023/04/30 09:29:11;;;;;;;3.80;1.52;;;;;;;11.54;46.57;150191.44;5085126;28;20069;-62
2023/04/30 09:31:38;;;;;;;3.38;1.40;;;;;;;11.63;46.80;150213.25;5090255;28;20024;-63
2023/04/30 09:34:04;;;;;;;1.90;1.48;;;;;;;11.84;46.20;150267.22;5105391;28;20024;-64
2023/04/30 09:36:31;;;;;;;2.08;1.52;;;;;;;11.88;46.58;150277.44;5104970;28;20028;-63
2023/04/30 09:39:16;;;;;;;6.10;1.67;;;;;;;11.96;46.20;150296.78;5095981;28;20047;-64
2023/04/30 09:41:42;;;;;;;3.40;1.45;;;;;;;12.08;46.79;150327.59;5092284;28;20043;-63
2023/04/30 09:44:27;;;;;;;2.97;1.60;;;;;;;11.92;46.20;150287.72;5085356;28;20028;-63
2023/04/30 09:46:52;;;;;;;3.25;1.80;;;;;;;12.08;45.87;150326.28;5085131;28;20033;-63
2023/04/30 09:49:18;;;;;;;3.10;1.42;;;;;;;11.65;45.89;150219.69;5104735;28;20065;-62
2023/04/30 09:52:00;;;;;;;8.50;1.90;;;;;;;12.12;46.44;150336.56;5089942;28;20091;-63
2023/04/30 09:54:28;;;;;;;3.30;2.30;;;;;;;12.06;45.53;150321.16;5097311;28;20024;-64
2023/04/30 09:56:57;;;;;;;5.30;1.90;;;;;;;12.04;46.18;150316.00;5096885;28;20036;-63
2023/04/30 09:59:29;;;;;;;3.75;1.50;;;;;;;12.20;44.75;150355.81;5053776;28;20039;-64
2023/04/30 10:01:57;;;;;;;3.50;1.55;;;;;;;12.26;44.78;150372.50;5105073;28;20142;-63
2023/04/30 10:04:23;;;;;;;2.45;1.70;;;;;;;12.38;45.48;150400.75;5104717;28;20060;-64
2023/04/30 10:06:53;;;;;;;1.67;1.33;;;;;;;12.34;44.16;150390.47;5104907;28;20036;-64
2023/04/30 10:09:20;;;;;;;2.88;1.85;;;;;;;12.43;43.37;150413.63;5093176;28;20032;-64
2023/04/30 10:11:46;;;;;;;2.60;1.60;;;;;;;12.18;44.41;150350.69;5084565;28;20190;-63
2023/04/30 10:14:16;;;;;;;1.73;1.30;;;;;;;12.08;44.16;150326.28;5086405;28;20029;-63
2023/04/30 10:16:57;;;;;;;3.28;1.60;;;;;;;12.25;44.52;150369.94;5104705;28;20085;-63
2023/04/30 10:19:25;;;;;;;5.72;1.60;;;;;;;12.18;44.23;150350.69;5084249;28;20190;-63
2023/04/30 10:21:51;;;;;;;3.20;1.48;;;;;;;12.39;44.17;150404.59;5100299;28;20376;-64
2023/04/30 10:24:18;;;;;;;2.90;1.73;;;;;;;11.96;43.74;150295.50;5093257;28;20025;-63
2023/04/30 10:26:48;;;;;;;4.68;2.00;;;;;;;12.36;45.22;150395.66;5090591;28;20047;-63
2023/04/30 10:29:15;;;;;;;4.53;2.70;;;;;;;12.27;45.09;150373.81;5102064;28;20030;-64
2023/04/30 10:31:45;;;;;;;3.72;1.90;;;;;;;12.32;45.02;150385.38;5074793;28;20072;-63
2023/04/30 10:34:54;;;;;;;2.50;1.75;;;;;;;11.88;44.37;150277.44;5103985;28;20024;-64
2023/04/30 10:37:52;;;;;;;3.97;1.70;;;;;;;11.90;44.41;150282.59;5066412;28;20036;-64
2023/04/30 10:40:18;;;;;;;7.68;2.53;;;;;;;11.85;45.16;150268.47;5049919;28;20193;-65
2023/04/30 10:42:47;;;;;;;4.15;1.67;;;;;;;11.86;44.27;150272.31;5082001;28;20237;-64
2023/04/30 10:45:14;;;;;;;2.35;1.83;;;;;;;11.93;45.27;150289.03;5100851;28;20201;-64
2023/04/30 10:47:47;;;;;;;3.95;2.03;;;;;;;12.18;45.36;150350.69;5103962;28;20107;-63
2023/04/30 10:50:12;;;;;;;4.53;2.00;;;;;;;12.22;44.54;150362.22;5084048;28;20024;-66
2023/04/30 10:52:38;;;;;;;5.63;2.35;;;;;;;12.29;45.38;150377.66;5083497;28;20355;-64
2023/04/30 10:55:07;;;;;;;3.72;1.88;;;;;;;12.02;45.80;150310.88;5100999;28;20031;-64
2023/04/30 10:57:41;;;;;;;4.97;1.83;;;;;;;11.83;46.68;150264.63;5090673;28;20043;-64
2023/04/30 11:00:07;;;;;;;2.38;1.77;;;;;;;12.08;45.88;150326.28;5087455;28;20032;-63
2023/04/30 11:02:41;;;;;;;5.70;2.50;;;;;;;11.99;45.97;150304.47;5087752;28;20028;-64
2023/04/30 11:05:06;;;;;;;5.20;1.80;;;;;;;12.16;46.21;150346.84;5102558;28;20291;-63
2023/04/30 11:07:33;;;;;;;2.40;1.90;;;;;;;12.12;45.28;150335.28;5083201;28;20056;-64
2023/04/30 11:10:00;;;;;;;2.72;1.60;;;;;;;12.26;46.01;150372.50;5099809;28;20197;-63
2023/04/30 11:12:27;;;;;;;2.50;1.85;;;;;;;12.06;46.01;150322.44;5073554;28;20098;-63
2023/04/30 11:15:00;;;;;;;4.97;1.90;;;;;;;12.01;46.18;150308.31;5090451;28;20046;-64
2023/04/30 11:17:27;;;;;;;4.47;2.60;;;;;;;12.30;46.04;150381.53;5099934;28;20028;-65
2023/04/30 11:19:53;;;;;;;3.35;2.05;;;;;;;12.29;46.01;150378.94;5083135;28;20511;-64
2023/04/30 11:22:22;;;;;;;4.05;1.73;;;;;;;12.34;46.57;150390.47;5102228;28;20035;-64